Kezdőlap
METAR-TAF:

METAR-TAF

Repülőterek :

Nakashibetsu, Japán

földrajzi szélesség: 43-34N, földrajzi hosszúság: 144-58E, magasság: 66 m

Jelenlegi meteorológiai megfigyelések

A jelentés 4 órával és 57 perccel ezelõtt készült, 09:00 UTC
Észak-északkeleti szél 4 kt
Hőmérséklet 13°C
Páratartalom 94%
Légköri nyomás 1010 hPa
Látótávolság: 7000 m
Kevés felhő 600 lábon
Szórványos felhőzet 800 lábon
Szakadozott felhőzet 1000 lábon

METAR: RJCN 150900Z 03004KT 7000 FEW006 SCT008 BKN010 13/12 Q1010

Idő: 22:57 (13:57 UTC)


TAF: hiányzik

Meteorológiai megfigyelések és előrejelzések több, mint 4000 repülőtéren (METAR és TAF jelentéseket).

A térképen piros és sárga pontok jelzik az elérhető meteorológiai állomásokat.

Mozgassa az egeret a pont fölött, hogy megjelenjen az állomás neve.

Azután kattintson az időjárási megfigyelések és előrejelzések megtekintéséhez.

A térkép megváltoztatása: kattintson a fekete keresztel jelölt zöld gombra ráközelítéshez, a vonallal jelölt zöld gombra távolításhoz, vagy a zöld nyilakra a szomszédos térképek eléréséhez.


METAR-TAF: